createdAt,value
2023-02-06T00:00:44.716Z,11.02
2023-02-06T00:05:57.816Z,11.90
2023-02-06T00:08:25.128Z,10.32
2023-02-06T00:13:18.418Z,10.00
2023-02-06T00:15:44.962Z,11.45
2023-02-06T00:18:11.721Z,10.60
2023-02-06T00:20:38.737Z,10.45
2023-02-06T00:23:05.327Z,10.63
2023-02-06T00:25:31.720Z,10.45
2023-02-06T00:27:58.143Z,10.45
2023-02-06T00:30:24.495Z,10.82
2023-02-06T00:32:50.969Z,10.77
2023-02-06T00:35:17.402Z,11.52
2023-02-06T00:37:43.752Z,10.63
2023-02-06T00:40:10.528Z,11.05
2023-02-06T00:42:36.904Z,9.90
2023-02-06T00:45:03.475Z,9.57
2023-02-06T00:47:29.818Z,10.60
2023-02-06T00:49:56.177Z,9.82
2023-02-06T00:52:22.513Z,8.93
2023-02-06T00:54:48.872Z,9.77
2023-02-06T00:57:15.229Z,10.65
2023-02-06T00:59:41.703Z,9.68
2023-02-06T01:02:08.062Z,10.18
2023-02-06T01:04:34.489Z,10.00
2023-02-06T01:07:01.407Z,10.43
2023-02-06T01:09:27.846Z,11.23
2023-02-06T01:11:54.244Z,11.50
2023-02-06T01:14:20.618Z,12.73
2023-02-06T01:16:47.018Z,11.27
2023-02-06T01:19:13.712Z,10.68
2023-02-06T01:21:40.032Z,10.75
2023-02-06T01:24:06.462Z,10.68
2023-02-06T01:26:32.999Z,10.98
2023-02-06T01:28:59.347Z,13.15
2023-02-06T01:31:28.594Z,11.05
2023-02-06T01:33:57.635Z,11.57
2023-02-06T01:36:24.393Z,12.18
2023-02-06T01:38:51.297Z,12.77
2023-02-06T01:41:20.955Z,11.45
2023-02-06T01:44:10.921Z,13.70
2023-02-06T01:46:39.461Z,13.30
2023-02-06T01:49:09.572Z,12.00
2023-02-06T01:51:36.161Z,11.98
2023-02-06T01:54:05.162Z,11.20
2023-02-06T01:56:34.817Z,11.45
2023-02-06T01:59:02.950Z,11.70
2023-02-06T02:01:30.094Z,11.18
2023-02-06T02:04:03.120Z,10.13
2023-02-06T02:06:29.601Z,10.40
2023-02-06T02:08:58.306Z,10.88
2023-02-06T02:11:32.094Z,11.70
2023-02-06T02:16:35.607Z,10.88
2023-02-06T02:19:39.431Z,11.60
2023-02-06T02:22:23.945Z,11.48
2023-02-06T02:25:12.207Z,11.68
2023-02-06T02:27:59.601Z,11.13
2023-02-06T02:31:03.551Z,11.50
2023-02-06T02:33:46.416Z,11.27
2023-02-06T02:36:22.619Z,11.77
2023-02-06T02:39:03.138Z,11.38
2023-02-06T02:41:43.860Z,10.52
2023-02-06T02:44:17.114Z,9.95
2023-02-06T02:46:46.381Z,11.23
2023-02-06T02:49:17.427Z,12.55
2023-02-06T02:51:45.450Z,12.13
2023-02-06T02:54:11.834Z,10.63
2023-02-06T02:56:38.909Z,10.85
2023-02-06T02:59:11.266Z,10.63
2023-02-06T03:02:18.277Z,10.20
2023-02-06T03:04:51.322Z,11.05
2023-02-06T03:07:38.560Z,9.70
2023-02-06T03:10:26.619Z,10.98
2023-02-06T03:13:03.215Z,10.38
2023-02-06T03:15:54.673Z,10.07
2023-02-06T03:18:43.481Z,9.02
2023-02-06T03:21:15.228Z,9.45
2023-02-06T03:23:45.285Z,10.23
2023-02-06T03:26:15.834Z,9.57
2023-02-06T03:28:47.478Z,9.32
2023-02-06T03:31:18.215Z,8.90
2023-02-06T03:34:23.752Z,10.18
2023-02-06T03:36:51.741Z,8.32
2023-02-06T03:39:18.434Z,9.52
2023-02-06T03:41:47.036Z,9.52
2023-02-06T03:44:21.900Z,8.98
2023-02-06T03:46:50.227Z,8.02
2023-02-06T03:49:19.187Z,9.07
2023-02-06T03:51:49.407Z,9.07
2023-02-06T03:54:19.875Z,9.00
2023-02-06T03:56:51.893Z,8.55
2023-02-06T03:59:18.469Z,9.05
2023-02-06T04:01:49.595Z,9.27
2023-02-06T04:04:19.173Z,9.85
2023-02-06T04:06:45.583Z,9.50
2023-02-06T04:09:12.222Z,9.98
2023-02-06T04:11:38.848Z,8.13
2023-02-06T04:14:05.220Z,9.13
2023-02-06T04:16:31.590Z,10.30
2023-02-06T04:18:57.955Z,9.00
2023-02-06T04:21:24.293Z,9.45
2023-02-06T04:23:50.639Z,9.48
2023-02-06T04:26:16.990Z,9.38
2023-02-06T04:28:43.381Z,8.68
2023-02-06T04:31:09.805Z,9.23
2023-02-06T04:33:36.213Z,8.45
2023-02-06T04:36:02.734Z,9.32
2023-02-06T04:38:29.060Z,10.27
2023-02-06T04:40:55.446Z,9.13
2023-02-06T04:43:21.773Z,12.38
2023-02-06T04:45:48.101Z,10.20
2023-02-06T04:48:14.455Z,9.52
2023-02-06T04:50:40.772Z,9.13
2023-02-06T04:53:07.096Z,9.15
2023-02-06T04:55:35.231Z,9.52
2023-02-06T04:58:01.745Z,8.82
2023-02-06T05:00:28.076Z,9.52
2023-02-06T05:02:54.519Z,9.00
2023-02-06T05:05:21.091Z,8.40
2023-02-06T05:07:47.545Z,9.32
2023-02-06T05:10:14.951Z,9.38
2023-02-06T05:12:41.641Z,8.07
2023-02-06T05:15:08.785Z,9.38
2023-02-06T05:17:35.427Z,8.95
2023-02-06T05:20:02.266Z,8.45
2023-02-06T05:22:28.658Z,8.95
2023-02-06T05:24:54.980Z,9.82
2023-02-06T05:27:21.535Z,9.45
2023-02-06T05:29:47.958Z,9.02
2023-02-06T05:32:14.303Z,9.10
2023-02-06T05:34:40.695Z,7.95
2023-02-06T05:37:07.125Z,10.05
2023-02-06T05:39:33.482Z,7.72
2023-02-06T05:41:59.882Z,6.97
2023-02-06T05:44:26.297Z,9.65
2023-02-06T05:46:52.621Z,8.00
2023-02-06T05:49:18.961Z,8.48
2023-02-06T05:51:45.305Z,8.35
2023-02-06T05:54:11.984Z,8.75
2023-02-06T05:56:38.626Z,8.65
2023-02-06T05:59:07.433Z,8.60
2023-02-06T06:01:33.768Z,8.75
2023-02-06T06:04:00.165Z,7.22
2023-02-06T06:06:26.517Z,8.50
2023-02-06T06:08:53.187Z,7.93
2023-02-06T06:11:19.574Z,9.18
2023-02-06T06:13:46.528Z,7.20
2023-02-06T06:16:13.022Z,8.35
2023-02-06T06:18:39.355Z,7.80
2023-02-06T06:21:05.994Z,7.63
2023-02-06T06:23:32.422Z,8.82
2023-02-06T06:25:58.758Z,9.90
2023-02-06T06:28:25.098Z,8.48
2023-02-06T06:30:51.509Z,7.40
2023-02-06T06:33:17.888Z,8.93
2023-02-06T06:35:44.228Z,9.55
2023-02-06T06:38:10.588Z,7.70
2023-02-06T06:40:36.947Z,7.93
2023-02-06T06:43:03.449Z,8.85
2023-02-06T06:45:29.829Z,10.02
2023-02-06T06:47:56.229Z,9.90
2023-02-06T06:50:22.634Z,7.80
2023-02-06T06:52:49.037Z,8.65
2023-02-06T06:55:15.380Z,9.18
2023-02-06T06:57:42.877Z,9.18
2023-02-06T07:00:14.438Z,8.77
2023-02-06T07:02:40.900Z,9.75
2023-02-06T07:05:10.226Z,9.48
2023-02-06T07:07:38.946Z,9.57
2023-02-06T07:10:07.373Z,9.23
2023-02-06T07:12:34.258Z,8.38
2023-02-06T07:15:00.618Z,8.68
2023-02-06T07:17:27.032Z,8.50
2023-02-06T07:19:53.386Z,8.82
2023-02-06T07:22:20.312Z,9.82
2023-02-06T07:24:46.711Z,8.63
2023-02-06T07:27:13.401Z,10.02
2023-02-06T07:30:41.425Z,9.02
2023-02-06T07:33:07.874Z,8.98
2023-02-06T07:35:34.588Z,9.40
2023-02-06T07:38:00.997Z,9.43
2023-02-06T07:40:33.740Z,9.57
2023-02-06T07:43:09.514Z,9.88
2023-02-06T07:45:36.158Z,9.13
2023-02-06T07:48:07.403Z,10.77
2023-02-06T07:50:33.997Z,8.90
2023-02-06T07:53:00.349Z,8.35
2023-02-06T07:55:26.806Z,7.97
2023-02-06T07:57:54.729Z,8.85
2023-02-06T08:00:21.264Z,10.43
2023-02-06T08:02:47.656Z,8.02
2023-02-06T08:05:14.064Z,8.68
2023-02-06T08:07:40.537Z,8.98
2023-02-06T08:10:07.303Z,8.95
2023-02-06T08:12:33.669Z,10.40
2023-02-06T08:15:00.030Z,8.30
2023-02-06T08:17:26.342Z,8.68
2023-02-06T08:19:52.745Z,10.05
2023-02-06T08:22:19.112Z,7.85
2023-02-06T08:24:45.469Z,8.90
2023-02-06T08:27:11.804Z,9.15
2023-02-06T08:29:43.822Z,7.93
2023-02-06T08:32:12.124Z,9.02
2023-02-06T08:49:34.985Z,7.47
2023-02-06T09:00:04.176Z,8.57
2023-02-06T09:03:05.507Z,8.75
2023-02-06T09:05:32.611Z,9.60
2023-02-06T09:08:07.951Z,9.32
2023-02-06T09:10:40.042Z,8.77
2023-02-06T09:13:24.456Z,9.63
2023-02-06T09:15:52.566Z,11.23
2023-02-06T09:18:20.468Z,10.57
2023-02-06T09:20:56.691Z,9.90
2023-02-06T09:23:23.125Z,11.02
2023-02-06T09:25:50.255Z,9.98
2023-02-06T09:28:18.792Z,11.70
2023-02-06T09:30:47.115Z,9.65
2023-02-06T09:33:13.766Z,9.10
2023-02-06T09:35:40.398Z,9.02
2023-02-06T09:38:07.340Z,8.65
2023-02-06T09:40:36.526Z,8.93
2023-02-06T09:43:04.714Z,8.65
2023-02-06T09:45:35.460Z,8.73
2023-02-06T09:48:17.802Z,7.63
2023-02-06T09:51:18.755Z,7.35
2023-02-06T09:53:56.387Z,7.03
2023-02-06T09:56:37.729Z,7.00
2023-02-06T09:59:14.207Z,7.03
2023-02-06T10:02:02.273Z,7.03
2023-02-06T10:04:44.201Z,7.05
2023-02-06T10:07:29.520Z,7.38
2023-02-06T10:10:03.079Z,6.28
2023-02-06T10:15:09.048Z,6.75
2023-02-06T10:17:43.793Z,6.68
2023-02-06T10:20:32.745Z,5.50
2023-02-06T10:23:15.760Z,4.20
2023-02-06T10:25:48.257Z,5.00
2023-02-06T10:28:28.101Z,4.53
2023-02-06T10:33:53.177Z,3.95
2023-02-06T10:36:46.184Z,4.63
2023-02-06T10:39:40.312Z,4.57
2023-02-06T10:42:20.161Z,3.53
2023-02-06T10:44:51.779Z,3.63
2023-02-06T10:47:32.310Z,4.38
2023-02-06T10:50:19.529Z,3.55
2023-02-06T10:52:46.686Z,3.67
2023-02-06T10:57:50.685Z,3.85
2023-02-06T11:00:25.084Z,3.33
2023-02-06T11:03:06.853Z,3.40
2023-02-06T11:05:35.175Z,3.65
2023-02-06T11:08:21.669Z,4.28
2023-02-06T11:13:25.060Z,3.50
2023-02-06T11:16:00.585Z,3.45
2023-02-06T11:18:33.250Z,3.05
2023-02-06T11:20:59.593Z,3.17
2023-02-06T11:23:28.900Z,4.28
2023-02-06T11:25:58.897Z,3.25
2023-02-06T11:28:25.869Z,3.88
2023-02-06T11:30:58.504Z,3.60
2023-02-06T11:33:55.529Z,4.25
2023-02-06T11:36:23.969Z,3.50
2023-02-06T11:38:57.664Z,3.10
2023-02-06T11:41:24.439Z,2.80
2023-02-06T11:43:53.801Z,2.65
2023-02-06T11:46:28.818Z,3.50
2023-02-06T11:48:55.117Z,2.83
2023-02-06T11:51:23.507Z,3.13
2023-02-06T11:54:01.854Z,2.70
2023-02-06T11:56:29.746Z,3.28
2023-02-06T11:59:07.151Z,3.17
2023-02-06T12:01:42.861Z,3.22
2023-02-06T12:04:23.590Z,2.97
2023-02-06T12:06:55.251Z,2.80
2023-02-06T12:09:21.689Z,3.30
2023-02-06T12:12:00.559Z,3.17
2023-02-06T12:14:38.794Z,2.88
2023-02-06T12:17:18.842Z,3.45
2023-02-06T12:19:50.435Z,3.35
2023-02-06T12:22:23.853Z,3.50
2023-02-06T12:27:30.448Z,3.15
2023-02-06T12:30:02.723Z,3.10
2023-02-06T12:32:38.309Z,3.55
2023-02-06T12:35:43.456Z,2.50
2023-02-06T12:38:27.394Z,3.65
2023-02-06T12:41:16.368Z,3.13
2023-02-06T12:43:46.222Z,3.85
2023-02-06T12:46:20.485Z,3.30
2023-02-06T12:49:15.675Z,3.67
2023-02-06T12:52:11.857Z,3.65
2023-02-06T12:54:47.489Z,2.83
2023-02-06T12:57:26.735Z,2.30
2023-02-06T12:59:58.181Z,3.17
2023-02-06T13:02:53.869Z,2.40
2023-02-06T13:05:22.776Z,2.75
2023-02-06T13:07:51.407Z,3.25
2023-02-06T13:10:21.395Z,2.83
2023-02-06T13:12:56.501Z,2.97
2023-02-06T13:15:25.954Z,3.13
2023-02-06T13:17:56.865Z,3.30
2023-02-06T13:20:25.841Z,3.70
2023-02-06T13:22:54.840Z,2.35
2023-02-06T13:25:37.015Z,3.42
2023-02-06T13:28:21.895Z,3.03
2023-02-06T13:30:50.834Z,2.92
2023-02-06T13:33:24.062Z,2.42
2023-02-06T13:36:04.693Z,3.20
2023-02-06T13:38:34.766Z,2.80
2023-02-06T13:41:16.289Z,7.03
2023-02-06T13:44:14.378Z,2.30
2023-02-06T13:46:57.288Z,2.95
2023-02-06T13:49:32.755Z,2.20
2023-02-06T13:52:24.880Z,2.30
2023-02-06T13:55:00.906Z,2.70
2023-02-06T13:57:58.955Z,2.03
2023-02-06T14:00:30.226Z,2.13
2023-02-06T14:03:02.683Z,2.20
2023-02-06T14:05:54.849Z,2.47
2023-02-06T14:08:43.571Z,2.17
2023-02-06T14:11:39.865Z,2.22
2023-02-06T14:14:14.580Z,1.80
2023-02-06T14:17:05.834Z,3.03
2023-02-06T14:19:56.229Z,2.30
2023-02-06T14:22:49.219Z,2.47
2023-02-06T14:25:21.122Z,2.45
2023-02-06T14:27:59.671Z,2.40
2023-02-06T14:30:37.969Z,2.58
2023-02-06T14:33:42.039Z,2.30
2023-02-06T14:36:23.648Z,2.13
2023-02-06T14:39:27.684Z,2.03
2023-02-06T14:41:54.330Z,2.45
2023-02-06T14:44:25.279Z,1.98
2023-02-06T14:46:52.051Z,1.92
2023-02-06T14:49:29.461Z,1.90
2023-02-06T14:51:55.941Z,1.98
2023-02-06T14:54:32.650Z,2.08
2023-02-06T14:57:02.809Z,1.88
2023-02-06T14:59:30.799Z,1.85
2023-02-06T15:01:59.038Z,2.10
2023-02-06T15:04:28.606Z,2.47
2023-02-06T15:07:03.129Z,1.98
2023-02-06T15:09:32.689Z,2.13
2023-02-06T15:12:02.236Z,1.70
2023-02-06T15:14:34.693Z,1.70
2023-02-06T15:17:03.044Z,2.42
2023-02-06T15:19:32.424Z,1.98
2023-02-06T15:22:19.830Z,1.92
2023-02-06T15:25:11.292Z,1.70
2023-02-06T15:27:40.000Z,2.13
2023-02-06T15:30:21.364Z,1.95
2023-02-06T15:32:52.011Z,1.45
2023-02-06T15:35:40.026Z,1.52
2023-02-06T15:38:14.565Z,1.77
2023-02-06T15:40:45.440Z,1.52
2023-02-06T15:43:18.084Z,2.42
2023-02-06T15:45:45.120Z,1.42
2023-02-06T15:51:00.772Z,1.73
2023-02-06T15:53:37.452Z,1.70
2023-02-06T15:56:26.535Z,2.05
2023-02-06T15:58:59.544Z,2.47
2023-02-06T16:01:27.652Z,2.33
2023-02-06T16:04:06.658Z,2.15
2023-02-06T16:06:40.426Z,1.83
2023-02-06T16:09:09.269Z,1.48
2023-02-06T16:11:54.688Z,1.83
2023-02-06T16:14:46.161Z,1.95
2023-02-06T16:20:51.210Z,1.63
2023-02-06T16:26:04.648Z,3.25
2023-02-06T16:28:32.149Z,1.90
2023-02-06T16:31:02.150Z,2.60
2023-02-06T16:40:49.586Z,2.30
2023-02-06T16:43:23.977Z,2.30
2023-02-06T16:45:50.578Z,1.80
2023-02-06T16:48:18.092Z,2.28
2023-02-06T16:50:46.916Z,1.65
2023-02-06T16:53:21.804Z,1.65
2023-02-06T16:55:50.650Z,2.20
2023-02-06T16:58:21.102Z,2.03
2023-02-06T17:00:48.354Z,2.42
2023-02-06T17:03:17.752Z,1.60
2023-02-06T17:05:46.666Z,1.65
2023-02-06T17:08:17.220Z,2.03
2023-02-06T17:10:45.001Z,1.55
2023-02-06T17:13:16.452Z,2.60
2023-02-06T17:15:57.027Z,1.83
2023-02-06T17:18:24.176Z,1.83
2023-02-06T17:23:27.275Z,1.85
2023-02-06T17:25:53.714Z,1.42
2023-02-06T17:28:20.575Z,1.70
2023-02-06T17:32:17.644Z,1.95
2023-02-06T17:34:44.183Z,1.67
2023-02-06T17:37:20.447Z,1.70
2023-02-06T17:42:37.113Z,1.88
2023-02-06T17:45:03.908Z,2.22
2023-02-06T17:47:32.631Z,2.17
2023-02-06T17:49:59.508Z,2.60
2023-02-06T17:52:26.055Z,2.38
2023-02-06T17:54:52.472Z,2.05
2023-02-06T17:57:18.866Z,2.15
2023-02-06T17:59:45.274Z,2.42
2023-02-06T18:02:15.592Z,2.78
2023-02-06T18:04:48.995Z,2.70
2023-02-06T18:07:15.363Z,2.13
2023-02-06T18:09:42.365Z,2.17
2023-02-06T18:17:03.705Z,1.90
2023-02-06T18:19:30.376Z,3.05
2023-02-06T18:21:56.766Z,2.53
2023-02-06T18:24:23.219Z,2.63
2023-02-06T18:26:49.613Z,2.33
2023-02-06T18:29:16.046Z,2.50
2023-02-06T18:31:42.441Z,2.30
2023-02-06T18:34:08.884Z,2.35
2023-02-06T18:36:36.443Z,2.40
2023-02-06T18:39:05.548Z,2.38
2023-02-06T18:41:50.581Z,2.47
2023-02-06T18:44:16.953Z,2.55
2023-02-06T18:46:43.298Z,3.33
2023-02-06T18:49:09.777Z,3.47
2023-02-06T18:51:36.643Z,3.60
2023-02-06T18:54:03.647Z,2.85
2023-02-06T18:56:30.793Z,3.08
2023-02-06T19:01:25.318Z,2.55
2023-02-06T19:03:53.447Z,2.35
2023-02-06T19:06:25.656Z,2.53
2023-02-06T19:08:52.004Z,2.80
2023-02-06T19:11:18.410Z,2.97
2023-02-06T19:13:44.784Z,3.45
2023-02-06T19:16:16.112Z,4.90
2023-02-06T19:18:44.799Z,3.05
2023-02-06T19:21:17.410Z,3.38
2023-02-06T19:23:45.428Z,3.08
2023-02-06T19:26:14.594Z,2.85
2023-02-06T19:28:42.766Z,3.45
2023-02-06T19:31:10.999Z,3.28
2023-02-06T19:33:39.063Z,3.58
2023-02-06T19:36:11.479Z,3.97
2023-02-06T19:38:38.311Z,3.47
2023-02-06T19:41:10.333Z,3.80
2023-02-06T19:43:37.537Z,3.35
2023-02-06T19:48:45.556Z,3.63
2023-02-06T19:51:16.556Z,3.20
2023-02-06T19:53:46.339Z,3.28
2023-02-06T19:56:39.842Z,2.78
2023-02-06T19:59:13.530Z,3.00
2023-02-06T20:01:39.872Z,3.85
2023-02-06T20:04:06.298Z,3.05
2023-02-06T20:06:35.023Z,4.13
2023-02-06T20:09:02.797Z,3.78
2023-02-06T20:11:31.613Z,3.47
2023-02-06T20:13:58.922Z,3.55
2023-02-06T20:18:54.572Z,3.17
2023-02-06T20:21:26.760Z,3.10
2023-02-06T20:23:55.561Z,3.50
2023-02-06T20:26:24.047Z,3.03
2023-02-06T20:28:50.551Z,3.38
2023-02-06T20:31:17.607Z,3.58
2023-02-06T20:33:45.035Z,3.35
2023-02-06T20:38:39.455Z,3.22
2023-02-06T20:41:06.821Z,3.15
2023-02-06T20:43:34.674Z,3.03
2023-02-06T20:46:07.325Z,3.17
2023-02-06T20:48:37.073Z,4.13
2023-02-06T20:51:05.342Z,2.95
2023-02-06T20:53:31.857Z,3.15
2023-02-06T20:55:58.255Z,2.85
2023-02-06T20:58:25.817Z,3.00
2023-02-06T21:00:53.130Z,3.55
2023-02-06T21:08:20.762Z,2.95
2023-02-06T21:10:49.847Z,3.00
2023-02-06T21:13:16.190Z,3.00
2023-02-06T21:15:43.246Z,2.95
2023-02-06T21:18:09.604Z,4.45
2023-02-06T21:20:36.371Z,3.72
2023-02-06T21:23:02.871Z,3.13
2023-02-06T21:25:29.214Z,2.97
2023-02-06T21:27:55.612Z,3.67
2023-02-06T21:30:22.040Z,4.00
2023-02-06T21:32:48.413Z,3.03
2023-02-06T21:35:14.825Z,3.10
2023-02-06T21:37:41.207Z,3.00
2023-02-06T21:40:08.012Z,3.13
2023-02-06T21:42:34.623Z,2.88
2023-02-06T21:45:01.214Z,2.78
2023-02-06T21:47:27.619Z,3.55
2023-02-06T21:49:54.050Z,3.25
2023-02-06T21:52:20.471Z,4.10
2023-02-06T21:54:46.839Z,3.50
2023-02-06T21:57:13.180Z,3.97
2023-02-06T21:59:40.886Z,3.70
2023-02-06T22:02:07.426Z,4.40
2023-02-06T22:04:33.752Z,3.95
2023-02-06T22:07:00.111Z,5.38
2023-02-06T22:09:26.488Z,4.15
2023-02-06T22:11:53.957Z,3.78
2023-02-06T22:14:20.275Z,3.80
2023-02-06T22:16:46.836Z,3.90
2023-02-06T22:19:14.038Z,3.65
2023-02-06T22:26:38.307Z,3.67
2023-02-06T22:29:10.433Z,4.18
2023-02-06T22:31:38.888Z,4.30
2023-02-06T22:34:05.339Z,4.25
2023-02-06T22:36:33.096Z,4.28
2023-02-06T22:39:01.930Z,3.90
2023-02-06T22:41:29.292Z,4.70
2023-02-06T22:43:56.087Z,4.40
2023-02-06T22:46:24.160Z,3.92
2023-02-06T22:48:51.486Z,3.97
2023-02-06T22:51:18.957Z,3.40
2023-02-06T22:53:45.408Z,3.53
2023-02-06T22:56:34.900Z,3.83
2023-02-06T22:59:10.219Z,3.30
2023-02-06T23:01:42.383Z,4.10
2023-02-06T23:04:12.634Z,2.75
2023-02-06T23:06:39.917Z,3.03
2023-02-06T23:09:08.071Z,3.28
2023-02-06T23:11:34.990Z,2.83
2023-02-06T23:14:03.698Z,2.78
2023-02-06T23:16:31.950Z,2.85
2023-02-06T23:18:59.519Z,2.75
2023-02-06T23:21:26.029Z,3.47
2023-02-06T23:23:54.807Z,2.75
2023-02-06T23:26:21.309Z,3.42
2023-02-06T23:28:47.989Z,2.78
2023-02-06T23:31:14.645Z,2.83
2023-02-06T23:33:41.297Z,3.25
2023-02-06T23:36:14.460Z,3.05
2023-02-06T23:38:41.600Z,3.33
2023-02-06T23:41:10.908Z,4.20
2023-02-06T23:43:37.822Z,2.83
2023-02-06T23:46:05.442Z,3.55
2023-02-06T23:48:32.210Z,3.70
2023-02-06T23:50:58.595Z,2.83
2023-02-06T23:53:25.084Z,2.60
2023-02-06T23:55:51.573Z,2.45
2023-02-06T23:58:18.282Z,3.20
